createdAt,value
2018-09-27T00:00:22.492Z,49.10
2018-09-27T00:02:51.507Z,49.00
2018-09-27T00:05:19.783Z,48.90
2018-09-27T00:07:48.023Z,49.10
2018-09-27T00:10:16.294Z,49.10
2018-09-27T00:12:44.560Z,50.30
2018-09-27T00:15:12.801Z,50.00
2018-09-27T00:17:41.066Z,50.20
2018-09-27T00:20:09.338Z,50.10
2018-09-27T00:22:37.577Z,50.20
2018-09-27T00:25:06.615Z,50.00
2018-09-27T00:27:34.872Z,50.00
2018-09-27T00:30:03.134Z,49.80
2018-09-27T00:32:32.155Z,50.30
2018-09-27T00:35:00.406Z,50.30
2018-09-27T00:37:28.671Z,51.30
2018-09-27T00:39:56.889Z,51.30
2018-09-27T00:42:25.129Z,51.40
2018-09-27T00:44:54.138Z,51.50
2018-09-27T00:47:22.418Z,51.50
2018-09-27T00:49:50.678Z,51.40
2018-09-27T00:52:18.921Z,51.10
2018-09-27T00:54:47.285Z,51.20
2018-09-27T00:57:15.539Z,50.60
2018-09-27T00:59:44.544Z,50.70
2018-09-27T01:02:13.570Z,50.60
2018-09-27T01:04:42.802Z,51.00
2018-09-27T01:07:11.058Z,51.00
2018-09-27T01:09:40.050Z,51.50
2018-09-27T01:12:08.328Z,51.40
2018-09-27T01:14:36.662Z,51.00
2018-09-27T01:17:04.910Z,50.40
2018-09-27T01:19:33.158Z,50.40
2018-09-27T01:22:01.513Z,50.20
2018-09-27T01:24:30.561Z,50.50
2018-09-27T01:26:58.817Z,50.40
2018-09-27T01:29:27.099Z,50.20
2018-09-27T01:31:55.388Z,50.70
2018-09-27T01:34:23.638Z,51.60
2018-09-27T01:36:51.873Z,51.00
2018-09-27T01:39:20.925Z,50.60
2018-09-27T01:41:49.170Z,50.60
2018-09-27T01:44:17.415Z,50.90
2018-09-27T01:46:46.438Z,51.00
2018-09-27T01:49:14.683Z,51.00
2018-09-27T01:51:43.735Z,51.30
2018-09-27T01:54:11.979Z,51.20
2018-09-27T01:56:40.237Z,50.80
2018-09-27T01:59:09.272Z,50.70
2018-09-27T02:01:37.535Z,50.60
2018-09-27T02:04:05.796Z,50.80
2018-09-27T02:06:34.033Z,52.30
2018-09-27T02:09:02.352Z,53.60
2018-09-27T02:11:31.354Z,53.70
2018-09-27T02:13:59.584Z,53.50
2018-09-27T02:16:28.610Z,51.70
2018-09-27T02:18:56.854Z,51.70
2018-09-27T02:21:25.870Z,51.80
2018-09-27T02:23:54.348Z,51.40
2018-09-27T02:26:22.602Z,51.10
2018-09-27T02:28:51.618Z,51.00
2018-09-27T02:31:19.889Z,51.00
2018-09-27T02:33:49.097Z,51.10
2018-09-27T02:36:17.339Z,51.00
2018-09-27T02:38:46.365Z,51.00
2018-09-27T02:41:14.633Z,51.00
2018-09-27T02:43:42.866Z,51.00
2018-09-27T02:46:11.122Z,51.00
2018-09-27T02:48:39.390Z,51.00
2018-09-27T02:51:07.649Z,51.00
2018-09-27T02:53:35.877Z,51.40
2018-09-27T02:56:04.910Z,51.20
2018-09-27T02:58:33.162Z,51.20
2018-09-27T03:01:02.188Z,51.00
2018-09-27T03:03:30.429Z,51.00
2018-09-27T03:05:59.554Z,50.40
2018-09-27T03:08:27.795Z,50.40
2018-09-27T03:10:56.794Z,50.70
2018-09-27T03:13:25.999Z,50.70
2018-09-27T03:15:54.348Z,50.70
2018-09-27T03:18:22.563Z,50.80
2018-09-27T03:20:50.877Z,50.90
2018-09-27T03:23:19.065Z,51.60
2018-09-27T03:25:47.307Z,52.20
2018-09-27T03:28:15.554Z,52.90
2018-09-27T03:30:44.031Z,53.50
2018-09-27T03:33:12.271Z,53.20
2018-09-27T03:35:40.506Z,53.40
2018-09-27T03:38:08.750Z,53.90
2018-09-27T03:40:37.065Z,52.80
2018-09-27T03:43:05.292Z,52.70
2018-09-27T03:45:34.292Z,52.60
2018-09-27T03:48:03.301Z,52.60
2018-09-27T03:50:32.390Z,52.60
2018-09-27T03:53:00.652Z,52.50
2018-09-27T03:55:28.901Z,52.40
2018-09-27T03:57:57.125Z,52.60
2018-09-27T04:00:25.385Z,52.80
2018-09-27T04:02:53.615Z,52.30
2018-09-27T04:05:21.882Z,53.30
2018-09-27T04:07:50.127Z,53.90
2018-09-27T04:10:18.358Z,54.30
2018-09-27T04:12:47.370Z,53.50
2018-09-27T04:15:15.623Z,53.50
2018-09-27T04:17:44.657Z,53.70
2018-09-27T04:20:12.906Z,53.60
2018-09-27T04:22:41.906Z,53.10
2018-09-27T04:25:10.319Z,53.10
2018-09-27T04:27:39.013Z,54.10
2018-09-27T04:30:07.208Z,54.30
2018-09-27T04:32:35.454Z,53.90
2018-09-27T04:35:03.766Z,54.50
2018-09-27T04:37:31.958Z,54.20
2018-09-27T04:40:00.197Z,54.90
2018-09-27T04:42:28.438Z,54.60
2018-09-27T04:44:56.837Z,54.30
2018-09-27T04:47:25.081Z,54.40
2018-09-27T04:49:53.323Z,53.60
2018-09-27T04:52:22.340Z,53.00
2018-09-27T04:54:50.578Z,53.00
2018-09-27T04:57:19.593Z,53.30
2018-09-27T04:59:48.605Z,53.30
2018-09-27T05:02:16.849Z,53.30
2018-09-27T05:04:45.854Z,53.70
2018-09-27T05:07:14.104Z,53.70
2018-09-27T05:09:43.212Z,54.30
2018-09-27T05:12:11.673Z,53.30
2018-09-27T05:14:39.954Z,53.00
2018-09-27T05:17:08.153Z,52.70
2018-09-27T05:19:37.172Z,53.50
2018-09-27T05:22:05.495Z,53.50
2018-09-27T05:24:33.710Z,54.00
2018-09-27T05:27:01.950Z,54.10
2018-09-27T05:29:31.114Z,54.10
2018-09-27T05:31:59.355Z,53.90
2018-09-27T05:34:27.585Z,54.10
2018-09-27T05:36:55.861Z,54.50
2018-09-27T05:39:24.288Z,53.90
2018-09-27T05:41:52.918Z,54.40
2018-09-27T05:44:21.155Z,54.60
2018-09-27T05:46:49.405Z,54.40
2018-09-27T05:49:17.637Z,54.20
2018-09-27T05:51:45.892Z,54.00
2018-09-27T05:54:14.123Z,54.70
2018-09-27T05:56:42.366Z,54.50
2018-09-27T05:59:10.646Z,54.30
2018-09-27T06:01:39.651Z,55.30
2018-09-27T06:04:08.648Z,54.70
2018-09-27T06:06:37.921Z,54.40
2018-09-27T06:09:06.355Z,54.40
2018-09-27T06:11:34.675Z,54.60
2018-09-27T06:14:03.613Z,54.90
2018-09-27T06:16:31.851Z,56.00
2018-09-27T06:19:00.078Z,55.80
2018-09-27T06:21:28.390Z,56.40
2018-09-27T06:23:56.848Z,55.90
2018-09-27T06:26:25.462Z,56.40
2018-09-27T06:28:53.703Z,56.00
2018-09-27T06:31:21.964Z,57.00
2018-09-27T06:33:50.203Z,57.20
2018-09-27T06:36:19.207Z,56.20
2018-09-27T06:38:47.464Z,56.20
2018-09-27T06:41:16.507Z,56.60
2018-09-27T06:43:44.725Z,57.40
2018-09-27T06:46:13.752Z,58.30
2018-09-27T06:48:42.002Z,57.70
2018-09-27T06:51:10.232Z,58.70
2018-09-27T06:53:38.534Z,57.00
2018-09-27T06:56:06.853Z,57.10
2018-09-27T06:58:35.025Z,56.20
2018-09-27T07:01:03.447Z,57.50
2018-09-27T07:03:31.531Z,55.80
2018-09-27T07:06:00.647Z,56.40
2018-09-27T07:08:29.716Z,55.80
2018-09-27T07:10:57.935Z,55.80
2018-09-27T07:13:26.189Z,55.30
2018-09-27T07:15:55.227Z,54.50
2018-09-27T07:18:23.488Z,54.40
2018-09-27T07:20:52.936Z,53.10
2018-09-27T07:23:21.168Z,53.10
2018-09-27T07:25:49.411Z,52.30
2018-09-27T07:28:18.438Z,51.40
2018-09-27T07:30:46.796Z,51.40
2018-09-27T07:33:15.035Z,50.70
2018-09-27T07:35:43.667Z,51.00
2018-09-27T07:38:11.931Z,49.40
2018-09-27T07:40:40.176Z,48.90
2018-09-27T07:43:09.186Z,48.60
2018-09-27T07:45:37.451Z,48.60
2018-09-27T07:48:06.470Z,47.30
2018-09-27T07:50:34.772Z,47.20
2018-09-27T07:53:03.222Z,48.40
2018-09-27T07:55:31.465Z,48.50
2018-09-27T07:58:00.476Z,46.40
2018-09-27T08:00:29.494Z,46.50
2018-09-27T08:02:57.912Z,46.50
2018-09-27T08:05:26.761Z,48.40
2018-09-27T08:07:55.228Z,48.40
2018-09-27T08:10:23.469Z,45.50
2018-09-27T08:12:51.696Z,45.70
2018-09-27T08:15:19.954Z,44.90
2018-09-27T08:17:48.211Z,43.80
2018-09-27T08:20:16.494Z,43.00
2018-09-27T08:22:45.478Z,44.00
2018-09-27T08:25:13.735Z,43.80
2018-09-27T08:27:41.994Z,44.30
2018-09-27T08:30:10.258Z,45.50
2018-09-27T08:32:38.542Z,43.80
2018-09-27T08:35:07.320Z,43.70
2018-09-27T08:37:35.565Z,42.00
2018-09-27T08:40:03.826Z,41.60
2018-09-27T08:42:32.081Z,42.00
2018-09-27T08:45:01.322Z,42.60
2018-09-27T08:47:29.334Z,42.60
2018-09-27T08:49:58.670Z,41.80
2018-09-27T08:52:26.920Z,41.60
2018-09-27T08:54:55.931Z,42.90
2018-09-27T08:57:24.194Z,42.70
2018-09-27T08:59:53.208Z,42.20
2018-09-27T09:02:21.451Z,42.20
2018-09-27T09:04:50.470Z,42.00
2018-09-27T09:07:19.090Z,41.90
2018-09-27T09:09:47.331Z,40.60
2018-09-27T09:12:15.620Z,40.70
2018-09-27T09:14:44.610Z,41.10
2018-09-27T09:17:12.897Z,41.10
2018-09-27T09:19:41.211Z,41.10
2018-09-27T09:22:09.415Z,41.20
2018-09-27T09:24:37.803Z,41.20
2018-09-27T09:27:06.364Z,41.30
2018-09-27T09:29:34.645Z,41.30
2018-09-27T09:32:02.877Z,40.30
2018-09-27T09:34:31.129Z,39.30
2018-09-27T09:36:59.382Z,38.90
2018-09-27T09:39:27.625Z,40.30
2018-09-27T09:41:56.664Z,39.60
2018-09-27T09:44:24.893Z,39.60
2018-09-27T09:46:53.977Z,38.80
2018-09-27T09:49:22.971Z,38.20
2018-09-27T09:51:51.233Z,39.10
2018-09-27T09:54:19.496Z,40.40
2018-09-27T09:56:47.725Z,38.80
2018-09-27T09:59:15.989Z,39.50
2018-09-27T10:01:44.995Z,37.30
2018-09-27T10:04:13.266Z,37.20
2018-09-27T10:06:41.516Z,39.20
2018-09-27T10:09:10.527Z,37.10
2018-09-27T10:11:38.782Z,37.10
2018-09-27T10:14:08.309Z,37.30
2018-09-27T10:16:36.562Z,36.30
2018-09-27T10:19:05.577Z,36.80
2018-09-27T10:21:33.834Z,36.60
2018-09-27T10:24:02.873Z,38.20
2018-09-27T10:26:31.678Z,38.10
2018-09-27T10:28:59.916Z,36.80
2018-09-27T10:31:28.175Z,36.80
2018-09-27T10:33:57.185Z,36.90
2018-09-27T10:36:25.439Z,36.90
2018-09-27T10:38:54.441Z,35.90
2018-09-27T10:41:22.705Z,35.80
2018-09-27T10:43:51.748Z,35.70
2018-09-27T10:46:19.994Z,35.70
2018-09-27T10:48:48.261Z,35.30
2018-09-27T10:51:16.550Z,34.40
2018-09-27T10:53:45.542Z,33.20
2018-09-27T10:56:13.794Z,33.20
2018-09-27T10:58:42.823Z,33.50
2018-09-27T11:01:11.090Z,33.50
2018-09-27T11:03:39.406Z,34.80
2018-09-27T11:06:07.667Z,33.50
2018-09-27T11:08:35.939Z,33.30
2018-09-27T11:11:04.241Z,31.50
2018-09-27T11:13:32.501Z,31.90
2018-09-27T11:16:00.729Z,31.80
2018-09-27T11:18:29.001Z,32.30
2018-09-27T11:20:57.298Z,31.20
2018-09-27T11:23:25.546Z,30.40
2018-09-27T11:25:53.826Z,30.60
2018-09-27T11:28:22.366Z,30.70
2018-09-27T11:30:50.633Z,29.90
2018-09-27T11:33:18.878Z,29.80
2018-09-27T11:35:47.159Z,29.00
2018-09-27T11:38:15.397Z,29.70
2018-09-27T11:40:43.679Z,30.50
2018-09-27T11:43:11.920Z,30.10
2018-09-27T11:45:40.169Z,29.40
2018-09-27T11:50:43.848Z,30.10
2018-09-27T11:53:12.125Z,27.70
2018-09-27T11:55:41.287Z,28.70
2018-09-27T11:58:09.551Z,28.90
2018-09-27T12:00:37.833Z,28.30
2018-09-27T12:03:06.168Z,27.40
2018-09-27T12:05:34.422Z,27.50
2018-09-27T12:08:02.661Z,27.50
2018-09-27T12:10:30.988Z,27.50
2018-09-27T12:12:59.225Z,27.40
2018-09-27T12:15:28.261Z,25.60
2018-09-27T12:17:56.526Z,25.60
2018-09-27T12:20:24.758Z,28.10
2018-09-27T12:22:53.840Z,27.00
2018-09-27T12:25:22.804Z,26.50
2018-09-27T12:27:51.061Z,26.50
2018-09-27T12:30:19.302Z,26.40
2018-09-27T12:32:48.334Z,29.10
2018-09-27T12:35:16.599Z,29.10
2018-09-27T12:37:44.837Z,27.80
2018-09-27T12:40:13.857Z,26.50
2018-09-27T12:42:42.289Z,26.50
2018-09-27T12:45:10.588Z,25.10
2018-09-27T12:47:38.744Z,26.30
2018-09-27T12:50:07.014Z,27.10
2018-09-27T12:52:35.354Z,24.60
2018-09-27T12:55:03.514Z,24.10
2018-09-27T12:57:31.774Z,24.70
2018-09-27T13:00:00.817Z,24.20
2018-09-27T13:02:29.141Z,24.20
2018-09-27T13:04:57.328Z,23.80
2018-09-27T13:07:25.577Z,24.20
2018-09-27T13:09:54.798Z,27.50
2018-09-27T13:12:22.941Z,26.80
2018-09-27T13:14:51.169Z,23.00
2018-09-27T13:17:19.462Z,24.70
2018-09-27T13:19:47.713Z,24.70
2018-09-27T13:22:15.955Z,24.40
2018-09-27T13:24:44.977Z,24.80
2018-09-27T13:27:13.219Z,24.70
2018-09-27T13:29:42.248Z,24.90
2018-09-27T13:32:10.603Z,24.90
2018-09-27T13:34:38.800Z,25.30
2018-09-27T13:37:07.092Z,24.80
2018-09-27T13:39:36.061Z,25.70
2018-09-27T13:42:04.334Z,25.60
2018-09-27T13:44:32.594Z,25.80
2018-09-27T13:47:00.854Z,26.10
2018-09-27T13:49:29.135Z,26.20
2018-09-27T13:51:57.410Z,25.90
2018-09-27T13:54:26.422Z,25.60
2018-09-27T13:56:54.768Z,25.50
2018-09-27T13:59:22.959Z,25.10
2018-09-27T14:01:51.210Z,25.00
2018-09-27T14:04:20.251Z,25.40
2018-09-27T14:06:48.519Z,25.40
2018-09-27T14:09:16.784Z,25.00
2018-09-27T14:11:45.027Z,24.80
2018-09-27T14:14:14.067Z,25.40
2018-09-27T14:16:42.313Z,25.40
2018-09-27T14:19:11.340Z,25.30
2018-09-27T14:21:39.592Z,25.20
2018-09-27T14:24:07.857Z,25.10
2018-09-27T14:26:36.118Z,25.30
2018-09-27T14:29:05.124Z,29.10
2018-09-27T14:31:33.400Z,29.00
2018-09-27T14:34:03.046Z,25.20
2018-09-27T14:36:31.568Z,25.20
2018-09-27T14:38:59.738Z,24.60
2018-09-27T14:41:29.825Z,24.30
2018-09-27T14:43:58.805Z,24.50
2018-09-27T14:46:27.067Z,24.40
2018-09-27T14:48:55.297Z,24.30
2018-09-27T14:51:23.565Z,24.80
2018-09-27T14:53:51.810Z,25.10
2018-09-27T14:56:20.107Z,25.10
2018-09-27T14:58:48.335Z,25.50
2018-09-27T15:01:16.614Z,25.00
2018-09-27T15:03:44.855Z,24.80
2018-09-27T15:06:13.858Z,27.20
2018-09-27T15:08:42.135Z,27.00
2018-09-27T15:11:10.395Z,27.10
2018-09-27T15:13:38.888Z,25.60
2018-09-27T15:16:07.145Z,25.30
2018-09-27T15:18:35.404Z,25.80
2018-09-27T15:21:03.657Z,25.40
2018-09-27T15:23:32.027Z,25.40
2018-09-27T15:26:00.194Z,26.10
2018-09-27T15:28:28.433Z,26.40
2018-09-27T15:30:57.481Z,26.20
2018-09-27T15:33:25.736Z,26.10
2018-09-27T15:35:53.982Z,26.60
2018-09-27T15:38:22.274Z,27.30
2018-09-27T15:40:50.532Z,26.40
2018-09-27T15:43:19.544Z,28.40
2018-09-27T15:45:47.813Z,28.40
2018-09-27T15:48:16.054Z,27.20
2018-09-27T15:50:44.381Z,27.60
2018-09-27T15:53:12.628Z,26.70
2018-09-27T15:55:41.774Z,28.20
2018-09-27T15:58:10.247Z,28.20
2018-09-27T16:00:38.535Z,29.40
2018-09-27T16:03:06.767Z,28.10
2018-09-27T16:05:35.035Z,28.10
2018-09-27T16:08:03.276Z,28.00
2018-09-27T16:10:31.535Z,28.60
2018-09-27T16:12:59.793Z,28.50
2018-09-27T16:15:28.049Z,28.40
2018-09-27T16:17:56.315Z,28.70
2018-09-27T16:20:24.562Z,29.40
2018-09-27T16:22:53.876Z,29.00
2018-09-27T16:25:22.127Z,28.90
2018-09-27T16:27:51.143Z,32.20
2018-09-27T16:30:19.412Z,31.40
2018-09-27T16:32:48.419Z,33.10
2018-09-27T16:35:16.823Z,33.00
2018-09-27T16:37:45.137Z,33.10
2018-09-27T16:40:13.355Z,32.40
2018-09-27T16:42:42.609Z,33.70
2018-09-27T16:45:10.883Z,33.70
2018-09-27T16:47:39.166Z,34.40
2018-09-27T16:50:07.385Z,34.20
2018-09-27T16:52:35.636Z,34.00
2018-09-27T16:55:03.906Z,34.60
2018-09-27T16:57:32.150Z,35.40
2018-09-27T17:00:00.410Z,35.90
2018-09-27T17:02:28.822Z,36.90
2018-09-27T17:04:57.046Z,37.20
2018-09-27T17:07:25.332Z,37.90
2018-09-27T17:09:53.583Z,38.50
2018-09-27T17:12:21.851Z,38.90
2018-09-27T17:14:50.107Z,38.90
2018-09-27T17:17:18.382Z,38.70
2018-09-27T17:19:47.395Z,39.60
2018-09-27T17:22:15.640Z,39.50
2018-09-27T17:24:44.755Z,39.40
2018-09-27T17:27:12.971Z,39.40
2018-09-27T17:29:41.239Z,40.40
2018-09-27T17:32:09.497Z,41.70
2018-09-27T17:34:37.789Z,41.50
2018-09-27T17:37:06.034Z,41.10
2018-09-27T17:39:34.299Z,41.50
2018-09-27T17:42:02.554Z,42.60
2018-09-27T17:44:30.812Z,42.30
2018-09-27T17:46:59.086Z,42.70
2018-09-27T17:49:27.411Z,42.30
2018-09-27T17:51:55.629Z,42.60
2018-09-27T17:54:23.889Z,42.80
2018-09-27T17:56:52.161Z,42.80
2018-09-27T17:59:20.410Z,42.70
2018-09-27T18:01:48.675Z,42.60
2018-09-27T18:04:16.955Z,42.60
2018-09-27T18:06:45.245Z,42.80
2018-09-27T18:09:13.501Z,42.50
2018-09-27T18:11:41.824Z,43.20
2018-09-27T18:14:10.048Z,43.30
2018-09-27T18:16:39.084Z,44.10
2018-09-27T18:19:07.426Z,44.00
2018-09-27T18:21:35.788Z,44.20
2018-09-27T18:24:04.756Z,44.60
2018-09-27T18:26:33.010Z,44.60
2018-09-27T18:29:01.310Z,44.60
2018-09-27T18:31:29.553Z,44.70
2018-09-27T18:33:57.787Z,44.80
2018-09-27T18:36:26.838Z,45.80
2018-09-27T18:38:55.124Z,45.70
2018-09-27T18:41:23.363Z,45.80
2018-09-27T18:43:51.661Z,45.90
2018-09-27T18:46:19.900Z,45.70
2018-09-27T18:48:48.151Z,45.90
2018-09-27T18:51:16.429Z,46.00
2018-09-27T18:53:45.456Z,46.10
2018-09-27T18:56:13.727Z,46.00
2018-09-27T18:58:42.010Z,46.00
2018-09-27T19:03:44.814Z,46.30
2018-09-27T19:06:13.080Z,46.40
2018-09-27T19:08:41.317Z,46.40
2018-09-27T19:11:10.375Z,46.80
2018-09-27T19:13:38.637Z,46.80
2018-09-27T19:16:06.915Z,46.80
2018-09-27T19:18:35.188Z,47.00
2018-09-27T19:21:03.438Z,47.40
2018-09-27T19:23:31.700Z,46.60
2018-09-27T19:25:59.976Z,46.60
2018-09-27T19:28:28.220Z,46.60
2018-09-27T19:30:57.266Z,47.90
2018-09-27T19:33:25.530Z,47.40
2018-09-27T19:35:53.787Z,47.40
2018-09-27T19:38:22.230Z,47.30
2018-09-27T19:40:50.489Z,47.60
2018-09-27T19:43:18.750Z,47.50
2018-09-27T19:45:47.017Z,47.50
2018-09-27T19:48:15.259Z,47.80
2018-09-27T19:50:43.547Z,47.90
2018-09-27T19:53:11.824Z,47.90
2018-09-27T19:55:40.060Z,48.20
2018-09-27T19:58:08.365Z,48.20
2018-09-27T20:00:36.568Z,48.20
2018-09-27T20:03:04.836Z,48.60
2018-09-27T20:05:33.132Z,48.40
2018-09-27T20:08:01.373Z,48.80
2018-09-27T20:10:29.731Z,48.90
2018-09-27T20:12:57.886Z,49.30
2018-09-27T20:15:26.916Z,48.50
2018-09-27T20:17:55.185Z,48.40
2018-09-27T20:20:23.458Z,48.70
2018-09-27T20:22:51.725Z,48.90
2018-09-27T20:25:20.731Z,49.50
2018-09-27T20:27:48.997Z,49.50
2018-09-27T20:30:17.262Z,49.80
2018-09-27T20:32:46.272Z,49.80
2018-09-27T20:35:14.517Z,49.70
2018-09-27T20:37:44.415Z,50.60
2018-09-27T20:40:12.660Z,50.50
2018-09-27T20:42:40.907Z,50.40
2018-09-27T20:45:09.170Z,50.20
2018-09-27T20:47:37.524Z,50.40
2018-09-27T20:50:05.700Z,50.60
2018-09-27T20:52:33.962Z,50.80
2018-09-27T20:55:02.487Z,51.00
2018-09-27T20:57:30.736Z,51.30
2018-09-27T20:59:58.972Z,51.40
2018-09-27T21:02:28.142Z,51.40
2018-09-27T21:04:56.376Z,51.40
2018-09-27T21:07:25.382Z,51.40
2018-09-27T21:09:54.425Z,51.40
2018-09-27T21:12:22.682Z,51.40
2018-09-27T21:14:50.923Z,51.00
2018-09-27T21:17:19.949Z,50.20
2018-09-27T21:19:48.589Z,50.10
2018-09-27T21:22:17.617Z,50.30
2018-09-27T21:24:45.885Z,50.20
2018-09-27T21:27:14.162Z,50.70
2018-09-27T21:29:42.407Z,51.10
2018-09-27T21:32:10.975Z,51.10
2018-09-27T21:34:39.244Z,51.10
2018-09-27T21:37:07.501Z,50.90
2018-09-27T21:39:35.903Z,50.80
2018-09-27T21:42:04.144Z,50.40
2018-09-27T21:44:32.387Z,50.70
2018-09-27T21:47:00.658Z,51.10
2018-09-27T21:49:28.893Z,51.00
2018-09-27T21:51:57.162Z,51.10
2018-09-27T21:54:25.410Z,50.60
2018-09-27T21:56:53.658Z,50.70
2018-09-27T21:59:21.918Z,50.80
2018-09-27T22:01:50.951Z,50.80
2018-09-27T22:04:19.193Z,50.80
2018-09-27T22:06:47.451Z,50.70
2018-09-27T22:09:16.482Z,50.60
2018-09-27T22:11:44.730Z,50.60
2018-09-27T22:14:13.743Z,50.60
2018-09-27T22:16:42.006Z,50.60
2018-09-27T22:19:10.255Z,50.60
2018-09-27T22:21:38.570Z,50.60
2018-09-27T22:24:06.837Z,50.50
2018-09-27T22:26:35.894Z,50.80
2018-09-27T22:29:04.146Z,50.80
2018-09-27T22:31:32.403Z,50.70
2018-09-27T22:34:00.649Z,50.30
2018-09-27T22:36:29.674Z,50.40
2018-09-27T22:38:57.946Z,50.30
2018-09-27T22:41:26.182Z,50.30
2018-09-27T22:43:55.188Z,50.20
2018-09-27T22:46:23.458Z,50.20
2018-09-27T22:48:52.456Z,50.20
2018-09-27T22:51:20.701Z,50.20
2018-09-27T22:53:48.964Z,50.20
2018-09-27T22:56:17.209Z,51.10
2018-09-27T22:58:45.467Z,50.90
2018-09-27T23:01:13.703Z,50.80
2018-09-27T23:03:42.735Z,50.50
2018-09-27T23:06:11.159Z,51.00
2018-09-27T23:08:39.414Z,50.80
2018-09-27T23:11:07.678Z,51.30
2018-09-27T23:13:35.911Z,51.30
2018-09-27T23:16:04.922Z,51.40
2018-09-27T23:18:33.176Z,51.30
2018-09-27T23:21:02.194Z,51.20
2018-09-27T23:23:30.454Z,51.10
2018-09-27T23:25:58.730Z,51.30
2018-09-27T23:28:26.954Z,51.50
2018-09-27T23:30:56.076Z,51.80
2018-09-27T23:33:24.281Z,51.80
2018-09-27T23:35:52.523Z,51.60
2018-09-27T23:38:20.786Z,51.60
2018-09-27T23:40:49.041Z,51.90
2018-09-27T23:43:17.274Z,52.60
2018-09-27T23:45:45.548Z,52.60
2018-09-27T23:48:13.788Z,52.60
2018-09-27T23:50:42.041Z,52.90
2018-09-27T23:53:10.286Z,52.90
2018-09-27T23:55:38.540Z,52.60
2018-09-27T23:58:07.551Z,52.70
